EGGW Airport Information

Runway Information
Runway 07 Length 7093 ft width 150 ft
Elevation 515 ft Threshold ft Heading 74
Runway 25 Length 7093 ft Width 150 ft
Elevation 508 ft Threshold 279 ft Heading 254
Airport Frequencies
Type APP Name APP Frequency 129.55 MHZ
Type ATIS Name ATIS Frequency 120.575 MHZ
Type GND Name GND Frequency 121.75 MHZ
Type TWR Name TWR Frequency 132.55 MHZ
Airport Navaids
Airport Weather Information & NOTAM
ADDS - METARS form results

(2200 UTC 09 August 2022)
Data provider http://aviationweather.gov/metar/data/
 
METAR text: EGGW 092150Z AUTO 15004KT 9999 NCD 17/10 Q1029
Conditions at: EGGW (LUTON AIRPORT , GB) observed 2150 UTC 09 August 2022
Temperature: 17.0°C (63°F)
Dewpoint: 10.0°C (50°F) [RH = 63%]
Pressure (altimeter): 30.38 inches Hg (1029.0 mb)
Winds: from the SSE (150 degrees) at 5 MPH (4 knots; 2.1 m/s)
Visibility: 6 or more miles (10+ km)
Ceiling: at least 12,000 feet AGL
Clouds: sky clear below 12,000 feet AGL
Weather: no significant weather observed at this time

METAR text: EGGW 092120Z AUTO 14004KT 9999 NCD 18/10 Q1029
Conditions at: EGGW (LUTON AIRPORT , GB) observed 2120 UTC 09 August 2022
Temperature: 18.0°C (64°F)
Dewpoint: 10.0°C (50°F) [RH = 59%]
Pressure (altimeter): 30.38 inches Hg (1029.0 mb)
Winds: from the SE (140 degrees) at 5 MPH (4 knots; 2.1 m/s)
Visibility: 6 or more miles (10+ km)
Ceiling: at least 12,000 feet AGL
Clouds: sky clear below 12,000 feet AGL
Weather: no significant weather observed at this time

Forecast for: EGGW (LUTON AIRPORT , GB)
Text: TAF EGGW 091653Z 0918/1018 06006KT CAVOK
Forecast period: 1800 UTC 09 August 2022 to 1800 UTC 10 August 2022
Forecast type: FROM: standard forecast or significant change
Winds: from the ENE (60 degrees) at 7 MPH (6 knots; 3.1 m/s)
Visibility: 6 or more miles (10+ km)
Ceiling: unknown
Clouds: missing
Weather: NSW  (no significant weather)
Text: PROB40 0918/0920 13010KT
Forecast period: 1800 to 2000 UTC 09 August 2022
Forecast type: PROBABLE: 40 percent likelihood of the following during this time
Winds: from the SE (130 degrees) at 12 MPH (10 knots; 5.1 m/s)
Visibility: missing
Ceiling: unknown
Clouds: missing
Weather: no significant weather forecast for this period